sensor_id;sensor_type;location;lat;lon;timestamp;pressure;altitude;pressure_sealevel;temperature;humidity
44297;BME280;51842;47.450;8.654;2023-11-19T00:00:57;95783.44;;;5.71;100.00
44297;BME280;51842;47.450;8.654;2023-11-19T00:03:23;95781.59;;;5.72;100.00
44297;BME280;51842;47.450;8.654;2023-11-19T00:05:48;95777.09;;;5.72;100.00
44297;BME280;51842;47.450;8.654;2023-11-19T00:08:15;95782.19;;;5.74;100.00
44297;BME280;51842;47.450;8.654;2023-11-19T00:10:40;95771.63;;;5.74;100.00
44297;BME280;51842;47.450;8.654;2023-11-19T00:13:06;95760.00;;;5.75;100.00
44297;BME280;51842;47.450;8.654;2023-11-19T00:15:32;95739.06;;;5.73;100.00
44297;BME280;51842;47.450;8.654;2023-11-19T00:17:58;95732.19;;;5.72;100.00
44297;BME280;51842;47.450;8.654;2023-11-19T00:20:24;95735.63;;;5.73;100.00
44297;BME280;51842;47.450;8.654;2023-11-19T00:22:50;95726.56;;;5.69;100.00
44297;BME280;51842;47.450;8.654;2023-11-19T00:25:20;95713.34;;;5.69;100.00
44297;BME280;51842;47.450;8.654;2023-11-19T00:27:47;95736.06;;;5.70;100.00
44297;BME280;51842;47.450;8.654;2023-11-19T00:30:15;95727.94;;;5.71;100.00
44297;BME280;51842;47.450;8.654;2023-11-19T00:32:41;95724.50;;;5.71;100.00
44297;BME280;51842;47.450;8.654;2023-11-19T00:35:08;95714.72;;;5.71;100.00
44297;BME280;51842;47.450;8.654;2023-11-19T00:37:35;95716.31;;;5.72;100.00
44297;BME280;51842;47.450;8.654;2023-11-19T00:40:02;95714.47;;;5.73;100.00
44297;BME280;51842;47.450;8.654;2023-11-19T00:42:31;95710.22;;;5.72;100.00
44297;BME280;51842;47.450;8.654;2023-11-19T00:44:56;95707.59;;;5.72;100.00
44297;BME280;51842;47.450;8.654;2023-11-19T00:47:23;95718.16;;;5.72;100.00
44297;BME280;51842;47.450;8.654;2023-11-19T00:49:49;95699.31;;;5.68;100.00
44297;BME280;51842;47.450;8.654;2023-11-19T00:52:18;95697.25;;;5.70;100.00
44297;BME280;51842;47.450;8.654;2023-11-19T00:54:44;95675.28;;;5.70;100.00
44297;BME280;51842;47.450;8.654;2023-11-19T00:57:10;95679.91;;;5.74;100.00
44297;BME280;51842;47.450;8.654;2023-11-19T00:59:36;95684.72;;;5.77;100.00
44297;BME280;51842;47.450;8.654;2023-11-19T01:02:02;95686.66;;;5.82;100.00
44297;BME280;51842;47.450;8.654;2023-11-19T01:04:35;95704.03;;;5.90;100.00
44297;BME280;51842;47.450;8.654;2023-11-19T01:07:05;95704.94;;;5.95;100.00
44297;BME280;51842;47.450;8.654;2023-11-19T01:09:32;95703.47;;;5.99;100.00
44297;BME280;51842;47.450;8.654;2023-11-19T01:12:01;95677.34;;;6.03;100.00
44297;BME280;51842;47.450;8.654;2023-11-19T01:14:28;95679.75;;;6.05;100.00
44297;BME280;51842;47.450;8.654;2023-11-19T01:16:54;95685.94;;;6.10;100.00
44297;BME280;51842;47.450;8.654;2023-11-19T01:19:22;95687.34;;;6.13;100.00
44297;BME280;51842;47.450;8.654;2023-11-19T01:21:51;95684.81;;;6.18;100.00
44297;BME280;51842;47.450;8.654;2023-11-19T01:24:17;95680.31;;;6.18;100.00
44297;BME280;51842;47.450;8.654;2023-11-19T01:26:46;95679.03;;;6.21;100.00
44297;BME280;51842;47.450;8.654;2023-11-19T01:29:13;95665.00;;;6.20;100.00
44297;BME280;51842;47.450;8.654;2023-11-19T01:31:42;95657.06;;;6.20;100.00
44297;BME280;51842;47.450;8.654;2023-11-19T01:34:10;95664.31;;;6.25;100.00
44297;BME280;51842;47.450;8.654;2023-11-19T01:36:35;95660.72;;;6.31;100.00
44297;BME280;51842;47.450;8.654;2023-11-19T01:39:01;95658.72;;;6.38;100.00
44297;BME280;51842;47.450;8.654;2023-11-19T01:41:28;95659.97;;;6.47;100.00
44297;BME280;51842;47.450;8.654;2023-11-19T01:43:54;95658.78;;;6.55;100.00
44297;BME280;51842;47.450;8.654;2023-11-19T01:46:20;95660.72;;;6.60;100.00
44297;BME280;51842;47.450;8.654;2023-11-19T01:48:46;95656.31;;;6.65;100.00
44297;BME280;51842;47.450;8.654;2023-11-19T01:51:17;95650.31;;;6.70;100.00
44297;BME280;51842;47.450;8.654;2023-11-19T01:53:43;95649.03;;;6.72;100.00
44297;BME280;51842;47.450;8.654;2023-11-19T01:56:14;95651.19;;;6.76;100.00
44297;BME280;51842;47.450;8.654;2023-11-19T01:58:43;95644.38;;;6.80;100.00
44297;BME280;51842;47.450;8.654;2023-11-19T02:01:11;95648.72;;;6.86;100.00
44297;BME280;51842;47.450;8.654;2023-11-19T02:03:38;95630.84;;;6.93;100.00
44297;BME280;51842;47.450;8.654;2023-11-19T02:06:05;95623.22;;;6.97;100.00
44297;BME280;51842;47.450;8.654;2023-11-19T02:08:31;95650.25;;;6.99;100.00
44297;BME280;51842;47.450;8.654;2023-11-19T02:10:57;95644.47;;;7.02;100.00
44297;BME280;51842;47.450;8.654;2023-11-19T02:13:26;95631.81;;;7.04;100.00
44297;BME280;51842;47.450;8.654;2023-11-19T02:15:52;95618.56;;;7.04;100.00
44297;BME280;51842;47.450;8.654;2023-11-19T02:18:26;95605.91;;;7.06;100.00
44297;BME280;51842;47.450;8.654;2023-11-19T02:20:59;95612.22;;;7.05;100.00
44297;BME280;51842;47.450;8.654;2023-11-19T02:23:29;95612.78;;;7.07;100.00
44297;BME280;51842;47.450;8.654;2023-11-19T02:26:09;95602.44;;;7.05;100.00
44297;BME280;51842;47.450;8.654;2023-11-19T02:28:39;95609.09;;;7.08;100.00
44297;BME280;51842;47.450;8.654;2023-11-19T02:31:07;95612.00;;;7.06;100.00
44297;BME280;51842;47.450;8.654;2023-11-19T02:33:36;95609.66;;;7.10;100.00
44297;BME280;51842;47.450;8.654;2023-11-19T02:36:06;95602.50;;;7.10;100.00
44297;BME280;51842;47.450;8.654;2023-11-19T02:38:34;95608.69;;;7.16;100.00
44297;BME280;51842;47.450;8.654;2023-11-19T02:41:03;95611.91;;;7.18;100.00
44297;BME280;51842;47.450;8.654;2023-11-19T02:43:35;95615.09;;;7.20;100.00
44297;BME280;51842;47.450;8.654;2023-11-19T02:46:05;95618.81;;;7.19;100.00
44297;BME280;51842;47.450;8.654;2023-11-19T02:48:37;95618.53;;;7.21;100.00
44297;BME280;51842;47.450;8.654;2023-11-19T02:51:03;95639.75;;;7.21;100.00
44297;BME280;51842;47.450;8.654;2023-11-19T02:53:30;95656.94;;;7.18;100.00
44297;BME280;51842;47.450;8.654;2023-11-19T02:55:57;95665.13;;;7.16;100.00
44297;BME280;51842;47.450;8.654;2023-11-19T02:58:32;95649.78;;;7.18;100.00
44297;BME280;51842;47.450;8.654;2023-11-19T03:00:57;95646.66;;;7.22;100.00
44297;BME280;51842;47.450;8.654;2023-11-19T03:03:25;95641.38;;;7.22;100.00
44297;BME280;51842;47.450;8.654;2023-11-19T03:05:57;95636.06;;;7.22;100.00
44297;BME280;51842;47.450;8.654;2023-11-19T03:08:23;95628.13;;;7.22;100.00
44297;BME280;51842;47.450;8.654;2023-11-19T03:10:49;95621.19;;;7.21;100.00
44297;BME280;51842;47.450;8.654;2023-11-19T03:13:16;95623.84;;;7.21;100.00
44297;BME280;51842;47.450;8.654;2023-11-19T03:15:45;95624.91;;;7.19;100.00
44297;BME280;51842;47.450;8.654;2023-11-19T03:18:11;95619.03;;;7.17;100.00
44297;BME280;51842;47.450;8.654;2023-11-19T03:20:37;95622.50;;;7.18;100.00
44297;BME280;51842;47.450;8.654;2023-11-19T03:23:03;95620.34;;;7.15;100.00
44297;BME280;51842;47.450;8.654;2023-11-19T03:25:29;95619.50;;;7.14;100.00
44297;BME280;51842;47.450;8.654;2023-11-19T03:28:03;95624.81;;;7.14;100.00
44297;BME280;51842;47.450;8.654;2023-11-19T03:30:30;95616.53;;;7.11;100.00
44297;BME280;51842;47.450;8.654;2023-11-19T03:32:57;95615.53;;;7.12;100.00
44297;BME280;51842;47.450;8.654;2023-11-19T03:35:24;95622.66;;;7.11;100.00
44297;BME280;51842;47.450;8.654;2023-11-19T03:37:51;95614.94;;;7.10;100.00
44297;BME280;51842;47.450;8.654;2023-11-19T03:40:18;95623.22;;;7.13;100.00
44297;BME280;51842;47.450;8.654;2023-11-19T03:42:46;95618.72;;;7.14;100.00
44297;BME280;51842;47.450;8.654;2023-11-19T03:45:12;95622.16;;;7.14;100.00
44297;BME280;51842;47.450;8.654;2023-11-19T03:47:38;95620.88;;;7.17;100.00
44297;BME280;51842;47.450;8.654;2023-11-19T03:50:05;95636.56;;;7.18;100.00
44297;BME280;51842;47.450;8.654;2023-11-19T03:52:32;95630.50;;;7.23;100.00
44297;BME280;51842;47.450;8.654;2023-11-19T03:54:59;95623.72;;;7.27;100.00
44297;BME280;51842;47.450;8.654;2023-11-19T03:57:25;95616.31;;;7.29;100.00
44297;BME280;51842;47.450;8.654;2023-11-19T03:59:50;95627.47;;;7.31;100.00
44297;BME280;51842;47.450;8.654;2023-11-19T04:02:17;95637.59;;;7.34;100.00
44297;BME280;51842;47.450;8.654;2023-11-19T04:04:43;95639.19;;;7.35;100.00
44297;BME280;51842;47.450;8.654;2023-11-19T04:07:08;95635.00;;;7.39;100.00
44297;BME280;51842;47.450;8.654;2023-11-19T04:09:35;95642.72;;;7.41;100.00
44297;BME280;51842;47.450;8.654;2023-11-19T04:12:04;95644.31;;;7.42;100.00
44297;BME280;51842;47.450;8.654;2023-11-19T04:14:30;95647.53;;;7.44;100.00
44297;BME280;51842;47.450;8.654;2023-11-19T04:16:56;95653.41;;;7.46;100.00
44297;BME280;51842;47.450;8.654;2023-11-19T04:19:21;95657.66;;;7.47;100.00
44297;BME280;51842;47.450;8.654;2023-11-19T04:21:48;95667.19;;;7.48;100.00
44297;BME280;51842;47.450;8.654;2023-11-19T04:24:14;95668.25;;;7.47;100.00
44297;BME280;51842;47.450;8.654;2023-11-19T04:26:45;95672.97;;;7.45;100.00
44297;BME280;51842;47.450;8.654;2023-11-19T04:29:16;95675.41;;;7.47;100.00
44297;BME280;51842;47.450;8.654;2023-11-19T04:31:45;95657.34;;;7.44;100.00
44297;BME280;51842;47.450;8.654;2023-11-19T04:34:12;95650.75;;;7.46;100.00
44297;BME280;51842;47.450;8.654;2023-11-19T04:36:38;95654.19;;;7.47;100.00
44297;BME280;51842;47.450;8.654;2023-11-19T04:39:05;95649.69;;;7.47;100.00
44297;BME280;51842;47.450;8.654;2023-11-19T04:41:35;95656.59;;;7.48;100.00
44297;BME280;51842;47.450;8.654;2023-11-19T04:44:02;95658.44;;;7.48;100.00
44297;BME280;51842;47.450;8.654;2023-11-19T04:46:27;95657.97;;;7.51;100.00
44297;BME280;51842;47.450;8.654;2023-11-19T04:48:53;95655.63;;;7.54;100.00
44297;BME280;51842;47.450;8.654;2023-11-19T04:51:19;95658.84;;;7.56;100.00
44297;BME280;51842;47.450;8.654;2023-11-19T04:53:45;95663.34;;;7.56;100.00
44297;BME280;51842;47.450;8.654;2023-11-19T04:56:11;95657.00;;;7.57;100.00
44297;BME280;51842;47.450;8.654;2023-11-19T04:58:39;95665.75;;;7.57;100.00
44297;BME280;51842;47.450;8.654;2023-11-19T05:01:05;95666.84;;;7.61;100.00
44297;BME280;51842;47.450;8.654;2023-11-19T05:03:31;95662.69;;;7.65;100.00
44297;BME280;51842;47.450;8.654;2023-11-19T05:05:58;95651.91;;;7.72;100.00
44297;BME280;51842;47.450;8.654;2023-11-19T05:08:25;95651.72;;;7.79;100.00
44297;BME280;51842;47.450;8.654;2023-11-19T05:10:50;95655.25;;;7.84;100.00
44297;BME280;51842;47.450;8.654;2023-11-19T05:13:16;95656.66;;;7.92;100.00
44297;BME280;51842;47.450;8.654;2023-11-19T05:15:42;95655.94;;;7.97;100.00
44297;BME280;51842;47.450;8.654;2023-11-19T05:18:08;95661.56;;;8.00;100.00
44297;BME280;51842;47.450;8.654;2023-11-19T05:20:34;95663.47;;;8.05;100.00
44297;BME280;51842;47.450;8.654;2023-11-19T05:23:00;95666.19;;;8.10;100.00
44297;BME280;51842;47.450;8.654;2023-11-19T05:25:27;95662.25;;;8.13;100.00
44297;BME280;51842;47.450;8.654;2023-11-19T05:27:53;95666.78;;;8.17;100.00
44297;BME280;51842;47.450;8.654;2023-11-19T05:30:19;95675.56;;;8.18;100.00
44297;BME280;51842;47.450;8.654;2023-11-19T05:32:45;95669.53;;;8.22;100.00
44297;BME280;51842;47.450;8.654;2023-11-19T05:35:11;95673.53;;;8.25;100.00
44297;BME280;51842;47.450;8.654;2023-11-19T05:37:38;95666.94;;;8.27;100.00
44297;BME280;51842;47.450;8.654;2023-11-19T05:40:05;95660.56;;;8.28;100.00
44297;BME280;51842;47.450;8.654;2023-11-19T05:42:37;95672.06;;;8.34;100.00
44297;BME280;51842;47.450;8.654;2023-11-19T05:45:03;95656.19;;;8.39;100.00
44297;BME280;51842;47.450;8.654;2023-11-19T05:47:29;95656.50;;;8.43;100.00
44297;BME280;51842;47.450;8.654;2023-11-19T05:49:55;95656.84;;;8.46;100.00
44297;BME280;51842;47.450;8.654;2023-11-19T05:52:21;95667.97;;;8.48;100.00
44297;BME280;51842;47.450;8.654;2023-11-19T05:54:48;95661.09;;;8.47;100.00
44297;BME280;51842;47.450;8.654;2023-11-19T05:57:17;95655.00;;;8.52;100.00
44297;BME280;51842;47.450;8.654;2023-11-19T05:59:48;95656.63;;;8.53;100.00
44297;BME280;51842;47.450;8.654;2023-11-19T06:02:14;95648.41;;;8.54;100.00
44297;BME280;51842;47.450;8.654;2023-11-19T06:04:39;95652.16;;;8.58;100.00
44297;BME280;51842;47.450;8.654;2023-11-19T06:07:07;95652.97;;;8.59;100.00
44297;BME280;51842;47.450;8.654;2023-11-19T06:09:32;95648.47;;;8.60;100.00
44297;BME280;51842;47.450;8.654;2023-11-19T06:11:59;95653.03;;;8.64;100.00
44297;BME280;51842;47.450;8.654;2023-11-19T06:14:27;95652.53;;;8.67;100.00
44297;BME280;51842;47.450;8.654;2023-11-19T06:16:53;95657.31;;;8.70;100.00
44297;BME280;51842;47.450;8.654;2023-11-19T06:19:19;95658.19;;;8.76;100.00
44297;BME280;51842;47.450;8.654;2023-11-19T06:21:45;95655.28;;;8.77;100.00
44297;BME280;51842;47.450;8.654;2023-11-19T06:24:11;95662.72;;;8.80;100.00
44297;BME280;51842;47.450;8.654;2023-11-19T06:26:36;95660.63;;;8.83;100.00
44297;BME280;51842;47.450;8.654;2023-11-19T06:29:02;95662.56;;;8.87;100.00
44297;BME280;51842;47.450;8.654;2023-11-19T06:31:28;95659.94;;;8.92;100.00
44297;BME280;51842;47.450;8.654;2023-11-19T06:33:54;95656.53;;;8.97;100.00
44297;BME280;51842;47.450;8.654;2023-11-19T06:36:19;95657.06;;;8.99;100.00
44297;BME280;51842;47.450;8.654;2023-11-19T06:38:45;95662.44;;;9.04;100.00
44297;BME280;51842;47.450;8.654;2023-11-19T06:41:11;95658.47;;;9.07;100.00
44297;BME280;51842;47.450;8.654;2023-11-19T06:43:37;95671.56;;;9.13;100.00
44297;BME280;51842;47.450;8.654;2023-11-19T06:46:03;95663.31;;;9.15;100.00
44297;BME280;51842;47.450;8.654;2023-11-19T06:48:32;95662.56;;;9.19;100.00
44297;BME280;51842;47.450;8.654;2023-11-19T06:50:59;95661.78;;;9.24;100.00
44297;BME280;51842;47.450;8.654;2023-11-19T06:53:25;95653.31;;;9.27;100.00
44297;BME280;51842;47.450;8.654;2023-11-19T06:55:50;95654.94;;;9.33;100.00
44297;BME280;51842;47.450;8.654;2023-11-19T06:58:16;95669.59;;;9.36;100.00
44297;BME280;51842;47.450;8.654;2023-11-19T07:00:43;95670.44;;;9.41;100.00
44297;BME280;51842;47.450;8.654;2023-11-19T07:03:09;95668.88;;;9.45;100.00
44297;BME280;51842;47.450;8.654;2023-11-19T07:05:36;95663.31;;;9.47;100.00
44297;BME280;51842;47.450;8.654;2023-11-19T07:08:06;95658.00;;;9.52;100.00
44297;BME280;51842;47.450;8.654;2023-11-19T07:10:33;95658.84;;;9.58;100.00
44297;BME280;51842;47.450;8.654;2023-11-19T07:12:59;95653.53;;;9.58;100.00
44297;BME280;51842;47.450;8.654;2023-11-19T07:15:26;95653.59;;;9.63;100.00
44297;BME280;51842;47.450;8.654;2023-11-19T07:17:51;95655.72;;;9.66;100.00
44297;BME280;51842;47.450;8.654;2023-11-19T07:20:20;95654.66;;;9.67;100.00
44297;BME280;51842;47.450;8.654;2023-11-19T07:22:45;95660.81;;;9.72;100.00
44297;BME280;51842;47.450;8.654;2023-11-19T07:25:14;95669.59;;;9.73;100.00
44297;BME280;51842;47.450;8.654;2023-11-19T07:27:40;95665.88;;;9.74;100.00
44297;BME280;51842;47.450;8.654;2023-11-19T07:30:07;95658.50;;;9.81;100.00
44297;BME280;51842;47.450;8.654;2023-11-19T07:32:33;95665.94;;;9.84;100.00
44297;BME280;51842;47.450;8.654;2023-11-19T07:34:59;95667.78;;;9.84;100.00
44297;BME280;51842;47.450;8.654;2023-11-19T07:37:25;95679.78;;;9.86;100.00
44297;BME280;51842;47.450;8.654;2023-11-19T07:39:51;95682.72;;;9.90;100.00
44297;BME280;51842;47.450;8.654;2023-11-19T07:42:17;95689.41;;;9.92;100.00
44297;BME280;51842;47.450;8.654;2023-11-19T07:44:46;95685.41;;;9.95;100.00
44297;BME280;51842;47.450;8.654;2023-11-19T07:47:12;95667.31;;;9.92;100.00
44297;BME280;51842;47.450;8.654;2023-11-19T07:49:38;95674.53;;;9.96;100.00
44297;BME280;51842;47.450;8.654;2023-11-19T07:52:04;95676.38;;;9.96;100.00
44297;BME280;51842;47.450;8.654;2023-11-19T07:54:30;95680.94;;;10.01;100.00
44297;BME280;51842;47.450;8.654;2023-11-19T07:56:56;95683.84;;;9.99;100.00
44297;BME280;51842;47.450;8.654;2023-11-19T07:59:22;95688.13;;;10.00;100.00
44297;BME280;51842;47.450;8.654;2023-11-19T08:01:48;95687.34;;;10.05;100.00
44297;BME280;51842;47.450;8.654;2023-11-19T08:04:14;95693.47;;;10.05;100.00
44297;BME280;51842;47.450;8.654;2023-11-19T08:06:40;95687.34;;;10.05;100.00
44297;BME280;51842;47.450;8.654;2023-11-19T08:09:06;95688.94;;;10.06;100.00
44297;BME280;51842;47.450;8.654;2023-11-19T08:11:33;95687.63;;;10.08;100.00
44297;BME280;51842;47.450;8.654;2023-11-19T08:13:59;95683.09;;;10.09;100.00
44297;BME280;51842;47.450;8.654;2023-11-19T08:16:25;95682.81;;;10.05;100.00
44297;BME280;51842;47.450;8.654;2023-11-19T08:18:50;95682.56;;;10.07;100.00
44297;BME280;51842;47.450;8.654;2023-11-19T08:21:16;95693.78;;;10.14;100.00
44297;BME280;51842;47.450;8.654;2023-11-19T08:23:42;95689.53;;;10.13;100.00
44297;BME280;51842;47.450;8.654;2023-11-19T08:26:08;95693.00;;;10.18;100.00
44297;BME280;51842;47.450;8.654;2023-11-19T08:28:34;95693.25;;;10.17;100.00
44297;BME280;51842;47.450;8.654;2023-11-19T08:31:01;95688.47;;;10.19;100.00
44297;BME280;51842;47.450;8.654;2023-11-19T08:33:27;95694.88;;;10.23;100.00
44297;BME280;51842;47.450;8.654;2023-11-19T08:35:52;95694.88;;;10.23;100.00
44297;BME280;51842;47.450;8.654;2023-11-19T08:38:18;95695.16;;;10.22;100.00
44297;BME280;51842;47.450;8.654;2023-11-19T08:40:44;95708.47;;;10.22;100.00
44297;BME280;51842;47.450;8.654;2023-11-19T08:43:10;95706.88;;;10.26;100.00
44297;BME280;51842;47.450;8.654;2023-11-19T08:45:36;95714.88;;;10.26;100.00
44297;BME280;51842;47.450;8.654;2023-11-19T08:48:02;95709.59;;;10.31;100.00
44297;BME280;51842;47.450;8.654;2023-11-19T08:50:28;95695.47;;;10.30;100.00
44297;BME280;51842;47.450;8.654;2023-11-19T08:52:53;95709.06;;;10.34;100.00
44297;BME280;51842;47.450;8.654;2023-11-19T08:55:19;95712.56;;;10.39;100.00
44297;BME280;51842;47.450;8.654;2023-11-19T08:57:45;95718.97;;;10.44;100.00
44297;BME280;51842;47.450;8.654;2023-11-19T09:00:12;95719.22;;;10.42;100.00
44297;BME280;51842;47.450;8.654;2023-11-19T09:02:40;95737.09;;;10.47;100.00
44297;BME280;51842;47.450;8.654;2023-11-19T09:05:06;95721.38;;;10.45;100.00
44297;BME280;51842;47.450;8.654;2023-11-19T09:07:35;95718.75;;;10.50;100.00
44297;BME280;51842;47.450;8.654;2023-11-19T09:10:01;95712.91;;;10.53;100.00
44297;BME280;51842;47.450;8.654;2023-11-19T09:12:27;95715.28;;;10.55;100.00
44297;BME280;51842;47.450;8.654;2023-11-19T09:14:53;95721.16;;;10.57;100.00
44297;BME280;51842;47.450;8.654;2023-11-19T09:17:19;95723.56;;;10.58;100.00
44297;BME280;51842;47.450;8.654;2023-11-19T09:19:45;95729.44;;;10.60;100.00
44297;BME280;51842;47.450;8.654;2023-11-19T09:22:11;95715.84;;;10.62;100.00
44297;BME280;51842;47.450;8.654;2023-11-19T09:24:37;95718.50;;;10.62;100.00
44297;BME280;51842;47.450;8.654;2023-11-19T09:27:03;95717.97;;;10.65;100.00
44297;BME280;51842;47.450;8.654;2023-11-19T09:29:31;95727.88;;;10.70;100.00
44297;BME280;51842;47.450;8.654;2023-11-19T09:31:58;95720.94;;;10.69;100.00
44297;BME280;51842;47.450;8.654;2023-11-19T09:34:24;95720.66;;;10.70;100.00
44297;BME280;51842;47.450;8.654;2023-11-19T09:36:49;95721.22;;;10.72;100.00
44297;BME280;51842;47.450;8.654;2023-11-19T09:39:15;95732.41;;;10.74;100.00
44297;BME280;51842;47.450;8.654;2023-11-19T09:41:44;95724.94;;;10.71;100.00
44297;BME280;51842;47.450;8.654;2023-11-19T09:44:11;95739.06;;;10.77;100.00
44297;BME280;51842;47.450;8.654;2023-11-19T09:46:39;95729.75;;;10.79;100.00
44297;BME280;51842;47.450;8.654;2023-11-19T09:49:08;95723.13;;;10.82;100.00
44297;BME280;51842;47.450;8.654;2023-11-19T09:51:37;95726.59;;;10.87;100.00
44297;BME280;51842;47.450;8.654;2023-11-19T09:54:03;95722.03;;;10.83;100.00
44297;BME280;51842;47.450;8.654;2023-11-19T09:56:29;95719.13;;;10.84;100.00
44297;BME280;51842;47.450;8.654;2023-11-19T09:58:55;95722.59;;;10.90;100.00
44297;BME280;51842;47.450;8.654;2023-11-19T10:01:21;95710.59;;;10.93;100.00
44297;BME280;51842;47.450;8.654;2023-11-19T10:03:48;95723.16;;;10.97;100.00
44297;BME280;51842;47.450;8.654;2023-11-19T10:06:15;95715.16;;;11.02;100.00
44297;BME280;51842;47.450;8.654;2023-11-19T10:08:42;95722.88;;;10.99;100.00
44297;BME280;51842;47.450;8.654;2023-11-19T10:11:09;95718.63;;;10.98;100.00
44297;BME280;51842;47.450;8.654;2023-11-19T10:13:38;95714.34;;;10.97;100.00
44297;BME280;51842;47.450;8.654;2023-11-19T10:16:09;95718.59;;;10.93;100.00
44297;BME280;51842;47.450;8.654;2023-11-19T10:18:37;95719.16;;;10.95;100.00
44297;BME280;51842;47.450;8.654;2023-11-19T10:21:07;95710.59;;;10.87;100.00
44297;BME280;51842;47.450;8.654;2023-11-19T10:23:53;95717.53;;;10.88;100.00
44297;BME280;51842;47.450;8.654;2023-11-19T10:26:20;95710.09;;;10.91;100.00
44297;BME280;51842;47.450;8.654;2023-11-19T10:28:47;95707.41;;;10.91;100.00
44297;BME280;51842;47.450;8.654;2023-11-19T10:31:19;95713.53;;;10.91;100.00
44297;BME280;51842;47.450;8.654;2023-11-19T10:33:51;95704.22;;;10.88;100.00
44297;BME280;51842;47.450;8.654;2023-11-19T10:36:17;95702.31;;;10.84;100.00
44297;BME280;51842;47.450;8.654;2023-11-19T10:38:54;95703.41;;;10.88;100.00
44297;BME280;51842;47.450;8.654;2023-11-19T10:41:31;95698.91;;;10.94;100.00
44297;BME280;51842;47.450;8.654;2023-11-19T10:44:00;95695.44;;;10.98;100.00
44297;BME280;51842;47.450;8.654;2023-11-19T10:46:41;95700.22;;;10.91;100.00
44297;BME280;51842;47.450;8.654;2023-11-19T10:49:08;95709.56;;;10.94;100.00
44297;BME280;51842;47.450;8.654;2023-11-19T10:51:34;95703.66;;;10.86;100.00
44297;BME280;51842;47.450;8.654;2023-11-19T10:54:04;95702.88;;;10.91;100.00
44297;BME280;51842;47.450;8.654;2023-11-19T10:56:34;95693.00;;;10.86;100.00
44297;BME280;51842;47.450;8.654;2023-11-19T10:59:01;95697.56;;;10.91;100.00
44297;BME280;51842;47.450;8.654;2023-11-19T11:01:43;95704.50;;;10.97;100.00
44297;BME280;51842;47.450;8.654;2023-11-19T11:04:23;95702.63;;;11.03;100.00
44297;BME280;51842;47.450;8.654;2023-11-19T11:06:51;95699.44;;;11.01;100.00
44297;BME280;51842;47.450;8.654;2023-11-19T11:09:20;95687.44;;;10.98;100.00
44297;BME280;51842;47.450;8.654;2023-11-19T11:11:47;95688.25;;;11.04;100.00
44297;BME280;51842;47.450;8.654;2023-11-19T11:14:14;95699.16;;;11.02;100.00
44297;BME280;51842;47.450;8.654;2023-11-19T11:16:43;95682.09;;;11.08;100.00
44297;BME280;51842;47.450;8.654;2023-11-19T11:19:12;95683.72;;;11.15;100.00
44297;BME280;51842;47.450;8.654;2023-11-19T11:21:43;95674.13;;;11.19;100.00
44297;BME280;51842;47.450;8.654;2023-11-19T11:33:12;95672.53;;;11.38;100.00
44297;BME280;51842;47.450;8.654;2023-11-19T11:36:17;95669.34;;;11.41;100.00
44297;BME280;51842;47.450;8.654;2023-11-19T11:38:49;95658.91;;;11.50;100.00
44297;BME280;51842;47.450;8.654;2023-11-19T11:41:20;95655.19;;;11.51;100.00
44297;BME280;51842;47.450;8.654;2023-11-19T11:43:53;95655.47;;;11.54;100.00
44297;BME280;51842;47.450;8.654;2023-11-19T11:49:07;95651.47;;;11.57;100.00
44297;BME280;51842;47.450;8.654;2023-11-19T11:51:57;95658.38;;;11.63;100.00
44297;BME280;51842;47.450;8.654;2023-11-19T12:02:16;95646.09;;;11.67;100.00
44297;BME280;51842;47.450;8.654;2023-11-19T12:04:47;95644.50;;;11.66;100.00
44297;BME280;51842;47.450;8.654;2023-11-19T12:07:22;95631.94;;;11.72;100.00
44297;BME280;51842;47.450;8.654;2023-11-19T12:10:08;95639.16;;;11.71;100.00
44297;BME280;51842;47.450;8.654;2023-11-19T12:12:34;95632.75;;;11.72;100.00
44297;BME280;51842;47.450;8.654;2023-11-19T12:15:10;95633.81;;;11.71;100.00
44297;BME280;51842;47.450;8.654;2023-11-19T12:17:40;95631.13;;;11.76;100.00
44297;BME280;51842;47.450;8.654;2023-11-19T12:20:08;95629.56;;;11.75;100.00
44297;BME280;51842;47.450;8.654;2023-11-19T12:22:38;95627.66;;;11.81;100.00
44297;BME280;51842;47.450;8.654;2023-11-19T12:25:07;95631.94;;;11.72;100.00
44297;BME280;51842;47.450;8.654;2023-11-19T12:27:49;95630.59;;;11.79;100.00
44297;BME280;51842;47.450;8.654;2023-11-19T12:30:25;95635.41;;;11.82;100.00
44297;BME280;51842;47.450;8.654;2023-11-19T12:32:53;95620.47;;;11.87;100.00
44297;BME280;51842;47.450;8.654;2023-11-19T12:35:19;95620.16;;;11.93;100.00
44297;BME280;51842;47.450;8.654;2023-11-19T12:37:48;95624.44;;;11.99;100.00
44297;BME280;51842;47.450;8.654;2023-11-19T12:42:41;95626.81;;;12.06;100.00
44297;BME280;51842;47.450;8.654;2023-11-19T12:45:07;95632.69;;;12.08;100.00
44297;BME280;51842;47.450;8.654;2023-11-19T12:47:38;95625.75;;;12.07;100.00
44297;BME280;51842;47.450;8.654;2023-11-19T12:50:04;95618.84;;;12.01;100.00
44297;BME280;51842;47.450;8.654;2023-11-19T12:52:30;95607.63;;;11.94;100.00
44297;BME280;51842;47.450;8.654;2023-11-19T12:54:56;95622.03;;;11.98;100.00
44297;BME280;51842;47.450;8.654;2023-11-19T12:57:39;95613.25;;;11.92;100.00
44297;BME280;51842;47.450;8.654;2023-11-19T13:00:06;95616.97;;;11.96;100.00
44297;BME280;51842;47.450;8.654;2023-11-19T13:05:31;95609.75;;;11.97;100.00
44297;BME280;51842;47.450;8.654;2023-11-19T13:08:06;95605.75;;;11.99;100.00
44297;BME280;51842;47.450;8.654;2023-11-19T13:13:16;95599.34;;;11.95;100.00
44297;BME280;51842;47.450;8.654;2023-11-19T13:15:42;95602.81;;;11.91;100.00
44297;BME280;51842;47.450;8.654;2023-11-19T13:18:11;95588.44;;;11.87;100.00
44297;BME280;51842;47.450;8.654;2023-11-19T13:20:37;95601.25;;;11.90;100.00
44297;BME280;51842;47.450;8.654;2023-11-19T13:23:06;95599.91;;;11.97;100.00
44297;BME280;51842;47.450;8.654;2023-11-19T13:25:32;95598.50;;;12.10;100.00